createdAt,value
2017-01-14T00:00:58.175Z,0
2017-01-14T00:02:11.657Z,0
2017-01-14T00:03:25.099Z,0
2017-01-14T00:04:38.667Z,0
2017-01-14T00:05:52.486Z,0
2017-01-14T00:07:06.937Z,0
2017-01-14T00:08:21.011Z,0
2017-01-14T00:09:34.979Z,0
2017-01-14T00:10:48.680Z,0
2017-01-14T00:12:02.360Z,0
2017-01-14T00:13:16.543Z,0
2017-01-14T00:14:30.060Z,0
2017-01-14T00:15:43.792Z,0
2017-01-14T00:17:00.229Z,0
2017-01-14T00:18:13.725Z,0
2017-01-14T00:19:27.475Z,0
2017-01-14T00:20:40.944Z,0
2017-01-14T00:21:54.500Z,0
2017-01-14T00:23:07.931Z,0
2017-01-14T00:24:21.419Z,0
2017-01-14T00:25:35.654Z,0
2017-01-14T00:26:49.121Z,0
2017-01-14T00:28:02.700Z,0
2017-01-14T00:29:16.803Z,0
2017-01-14T00:30:30.385Z,0
2017-01-14T00:31:44.165Z,0
2017-01-14T00:32:58.188Z,0
2017-01-14T00:34:11.848Z,0
2017-01-14T00:35:25.398Z,0
2017-01-14T00:36:39.136Z,0
2017-01-14T00:37:53.080Z,0
2017-01-14T00:39:06.602Z,0
2017-01-14T00:40:20.614Z,0
2017-01-14T00:41:34.324Z,0
2017-01-14T00:42:48.522Z,0
2017-01-14T00:44:03.680Z,0
2017-01-14T00:45:17.663Z,0
2017-01-14T00:46:31.221Z,0
2017-01-14T00:47:45.314Z,0
2017-01-14T00:48:59.187Z,0
2017-01-14T00:50:12.947Z,0
2017-01-14T00:51:26.424Z,0
2017-01-14T00:52:40.283Z,0
2017-01-14T00:53:53.844Z,0
2017-01-14T00:55:07.928Z,0
2017-01-14T00:56:21.719Z,0
2017-01-14T00:57:35.171Z,0
2017-01-14T00:58:49.244Z,0
2017-01-14T01:00:03.622Z,0
2017-01-14T01:01:17.135Z,0
2017-01-14T01:02:30.948Z,0
2017-01-14T01:03:44.490Z,0
2017-01-14T01:04:58.277Z,0
2017-01-14T01:06:11.752Z,0
2017-01-14T01:07:26.312Z,0
2017-01-14T01:08:40.179Z,0
2017-01-14T01:09:55.005Z,0
2017-01-14T01:11:08.588Z,0
2017-01-14T01:12:22.176Z,0
2017-01-14T01:13:35.706Z,0
2017-01-14T01:14:49.532Z,0
2017-01-14T01:16:18.645Z,0
2017-01-14T01:17:32.092Z,0
2017-01-14T01:18:45.577Z,0
2017-01-14T01:19:59.198Z,0
2017-01-14T01:21:13.303Z,0
2017-01-14T01:22:27.257Z,0
2017-01-14T01:23:40.911Z,0
2017-01-14T01:24:54.467Z,0
2017-01-14T01:26:08.093Z,0
2017-01-14T01:27:22.422Z,0
2017-01-14T01:28:36.066Z,0
2017-01-14T01:29:49.663Z,0
2017-01-14T01:31:04.591Z,0
2017-01-14T01:32:18.305Z,0
2017-01-14T01:33:34.420Z,0
2017-01-14T01:34:49.079Z,0
2017-01-14T01:36:02.944Z,0
2017-01-14T01:37:17.406Z,0
2017-01-14T01:38:31.684Z,0
2017-01-14T01:39:45.971Z,0
2017-01-14T01:41:00.264Z,0
2017-01-14T01:42:14.403Z,0
2017-01-14T01:43:28.088Z,0
2017-01-14T01:44:41.655Z,0
2017-01-14T01:45:55.522Z,0
2017-01-14T01:47:09.776Z,0
2017-01-14T01:48:23.232Z,0
2017-01-14T01:49:36.804Z,0
2017-01-14T01:50:50.285Z,0
2017-01-14T01:52:04.243Z,0
2017-01-14T01:53:17.822Z,0
2017-01-14T01:54:31.325Z,0
2017-01-14T01:55:44.770Z,0
2017-01-14T01:56:58.346Z,0
2017-01-14T01:58:12.255Z,0
2017-01-14T01:59:25.834Z,0
2017-01-14T02:00:39.447Z,0
2017-01-14T02:01:53.796Z,0
2017-01-14T02:03:08.671Z,0
2017-01-14T02:04:22.423Z,0
2017-01-14T02:05:35.947Z,0
2017-01-14T02:06:49.662Z,0
2017-01-14T02:08:03.217Z,0
2017-01-14T02:09:16.755Z,0
2017-01-14T02:10:30.549Z,0
2017-01-14T02:11:44.059Z,0
2017-01-14T02:12:58.155Z,0
2017-01-14T02:14:12.950Z,0
2017-01-14T02:15:26.504Z,0
2017-01-14T02:16:40.429Z,0
2017-01-14T02:17:54.330Z,0
2017-01-14T02:19:07.995Z,0
2017-01-14T02:20:21.463Z,0
2017-01-14T02:21:35.400Z,0
2017-01-14T02:22:49.287Z,0
2017-01-14T02:24:03.149Z,0
2017-01-14T02:25:16.804Z,0
2017-01-14T02:26:30.382Z,0
2017-01-14T02:27:43.877Z,0
2017-01-14T02:28:58.051Z,0
2017-01-14T02:30:11.633Z,0
2017-01-14T02:31:25.210Z,0
2017-01-14T02:32:38.902Z,0
2017-01-14T02:33:52.538Z,0
2017-01-14T02:35:06.441Z,0
2017-01-14T02:36:19.910Z,0
2017-01-14T02:37:33.446Z,0
2017-01-14T02:38:47.306Z,0
2017-01-14T02:40:00.935Z,0
2017-01-14T02:41:14.782Z,0
2017-01-14T02:42:28.555Z,0
2017-01-14T02:43:41.950Z,0
2017-01-14T02:44:55.618Z,0
2017-01-14T02:46:10.102Z,0
2017-01-14T02:47:24.343Z,0
2017-01-14T02:48:37.815Z,0
2017-01-14T02:49:54.801Z,0
2017-01-14T02:51:08.689Z,0
2017-01-14T02:52:22.326Z,0
2017-01-14T02:53:36.326Z,0
2017-01-14T02:54:49.836Z,0
2017-01-14T02:56:03.401Z,0
2017-01-14T02:57:17.241Z,0
2017-01-14T02:58:31.763Z,0
2017-01-14T02:59:45.675Z,0
2017-01-14T03:00:59.550Z,0
2017-01-14T03:02:13.224Z,0
2017-01-14T03:03:26.973Z,0
2017-01-14T03:04:41.303Z,0
2017-01-14T03:05:55.068Z,0
2017-01-14T03:07:08.602Z,0
2017-01-14T03:08:22.302Z,0
2017-01-14T03:09:35.835Z,0
2017-01-14T03:10:49.275Z,0
2017-01-14T03:12:03.822Z,0
2017-01-14T03:13:17.348Z,0
2017-01-14T03:14:30.974Z,0
2017-01-14T03:15:45.167Z,0
2017-01-14T03:17:00.286Z,0
2017-01-14T03:18:15.016Z,0
2017-01-14T03:19:28.474Z,0
2017-01-14T03:20:42.088Z,0
2017-01-14T03:21:57.877Z,0
2017-01-14T03:23:12.224Z,0
2017-01-14T03:24:26.442Z,0
2017-01-14T03:25:39.913Z,0
2017-01-14T03:26:53.838Z,0
2017-01-14T03:28:07.924Z,0
2017-01-14T03:29:21.448Z,0
2017-01-14T03:30:35.242Z,0
2017-01-14T03:31:49.103Z,0
2017-01-14T03:33:02.894Z,0
2017-01-14T03:34:16.487Z,0
2017-01-14T03:35:30.489Z,0
2017-01-14T03:36:44.665Z,0
2017-01-14T03:37:58.269Z,0
2017-01-14T03:39:11.792Z,0
2017-01-14T03:40:32.415Z,0
2017-01-14T03:41:45.927Z,0
2017-01-14T03:42:59.886Z,0
2017-01-14T03:44:14.421Z,0
2017-01-14T03:45:28.374Z,0
2017-01-14T03:46:41.991Z,0
2017-01-14T03:47:55.884Z,0
2017-01-14T03:49:10.160Z,0
2017-01-14T03:50:23.695Z,0
2017-01-14T03:51:37.565Z,0
2017-01-14T03:52:51.568Z,0
2017-01-14T03:54:05.292Z,0
2017-01-14T03:55:19.492Z,0
2017-01-14T03:56:33.073Z,0
2017-01-14T03:57:46.717Z,0
2017-01-14T03:59:00.788Z,0
2017-01-14T04:00:14.343Z,0
2017-01-14T04:01:28.204Z,0
2017-01-14T04:02:42.283Z,0
2017-01-14T04:03:55.802Z,0
2017-01-14T04:05:09.458Z,0
2017-01-14T04:06:25.643Z,0
2017-01-14T04:07:39.488Z,0
2017-01-14T04:08:53.006Z,0
2017-01-14T04:10:06.642Z,0
2017-01-14T04:11:20.207Z,0
2017-01-14T04:12:33.745Z,0
2017-01-14T04:13:47.574Z,0
2017-01-14T04:15:01.274Z,0
2017-01-14T04:16:14.840Z,0
2017-01-14T04:17:28.354Z,0
2017-01-14T04:18:41.892Z,0
2017-01-14T04:19:55.717Z,0
2017-01-14T04:21:09.291Z,0
2017-01-14T04:22:22.858Z,0
2017-01-14T04:23:36.443Z,0
2017-01-14T04:24:49.926Z,0
2017-01-14T04:26:03.847Z,0
2017-01-14T04:27:17.775Z,0
2017-01-14T04:28:31.320Z,0
2017-01-14T04:29:44.942Z,0
2017-01-14T04:30:58.742Z,0
2017-01-14T04:32:12.514Z,0
2017-01-14T04:33:26.861Z,0
2017-01-14T04:34:40.384Z,0
2017-01-14T04:35:54.059Z,0
2017-01-14T04:37:07.745Z,0
2017-01-14T04:38:22.021Z,0
2017-01-14T04:39:35.724Z,0
2017-01-14T04:40:49.272Z,0
2017-01-14T04:42:02.952Z,0
2017-01-14T04:43:16.462Z,0
2017-01-14T04:44:30.265Z,0
2017-01-14T04:45:43.856Z,0
2017-01-14T04:46:57.590Z,0
2017-01-14T04:48:11.244Z,0
2017-01-14T04:49:24.904Z,0
2017-01-14T04:50:38.742Z,0
2017-01-14T04:51:52.276Z,0
2017-01-14T04:53:05.968Z,0
2017-01-14T04:54:19.507Z,0
2017-01-14T04:55:32.969Z,0
2017-01-14T04:56:46.766Z,0
2017-01-14T04:58:00.432Z,0
2017-01-14T04:59:14.070Z,0
2017-01-14T05:00:27.607Z,0
2017-01-14T05:01:41.182Z,0
2017-01-14T05:02:55.713Z,0
2017-01-14T05:04:09.204Z,0
2017-01-14T05:05:23.078Z,0
2017-01-14T05:06:36.629Z,0
2017-01-14T05:07:50.194Z,0
2017-01-14T05:09:04.052Z,0
2017-01-14T05:10:17.636Z,0
2017-01-14T05:11:31.205Z,0
2017-01-14T05:12:44.867Z,0
2017-01-14T05:13:58.404Z,0
2017-01-14T05:15:12.703Z,0
2017-01-14T05:16:26.287Z,0
2017-01-14T05:17:39.887Z,0
2017-01-14T05:18:53.516Z,0
2017-01-14T05:20:07.116Z,0
2017-01-14T05:21:21.465Z,0
2017-01-14T05:22:37.945Z,0
2017-01-14T05:23:51.583Z,0
2017-01-14T05:25:05.169Z,0
2017-01-14T05:26:18.777Z,0
2017-01-14T05:27:32.727Z,0
2017-01-14T05:28:46.367Z,0
2017-01-14T05:30:01.228Z,0
2017-01-14T05:31:14.733Z,0
2017-01-14T05:32:28.253Z,0
2017-01-14T05:33:42.334Z,0
2017-01-14T05:34:56.043Z,0
2017-01-14T05:36:09.621Z,0
2017-01-14T05:37:23.175Z,0
2017-01-14T05:38:36.753Z,0
2017-01-14T05:39:50.725Z,0
2017-01-14T05:41:04.305Z,0
2017-01-14T05:42:17.896Z,0
2017-01-14T05:43:31.824Z,0
2017-01-14T05:44:45.476Z,0
2017-01-14T05:45:59.324Z,0
2017-01-14T05:47:12.889Z,0
2017-01-14T05:48:26.475Z,0
2017-01-14T05:49:40.061Z,0
2017-01-14T05:50:53.826Z,0
2017-01-14T05:52:07.690Z,0
2017-01-14T05:53:22.010Z,0
2017-01-14T05:54:35.967Z,0
2017-01-14T05:55:51.205Z,0
2017-01-14T05:57:05.637Z,0
2017-01-14T05:58:21.314Z,0
2017-01-14T05:59:35.179Z,0
2017-01-14T06:00:50.263Z,0
2017-01-14T06:02:04.230Z,0
2017-01-14T06:03:18.213Z,0
2017-01-14T06:04:32.437Z,0
2017-01-14T06:05:46.066Z,0
2017-01-14T06:06:59.712Z,0
2017-01-14T06:08:13.806Z,0
2017-01-14T06:09:27.666Z,0
2017-01-14T06:10:41.573Z,0
2017-01-14T06:11:55.132Z,0
2017-01-14T06:13:08.647Z,0
2017-01-14T06:14:22.235Z,0
2017-01-14T06:15:35.831Z,0
2017-01-14T06:16:49.870Z,0
2017-01-14T06:18:03.489Z,0
2017-01-14T06:19:17.174Z,0
2017-01-14T06:20:31.476Z,0
2017-01-14T06:21:45.135Z,0
2017-01-14T06:22:59.023Z,0
2017-01-14T06:24:12.710Z,0
2017-01-14T06:25:26.273Z,0
2017-01-14T06:26:39.889Z,0
2017-01-14T06:27:53.514Z,0
2017-01-14T06:29:07.353Z,0
2017-01-14T06:30:22.276Z,0
2017-01-14T06:31:35.824Z,0
2017-01-14T06:32:49.921Z,0
2017-01-14T06:34:03.456Z,0
2017-01-14T06:35:17.418Z,0
2017-01-14T06:36:30.946Z,0
2017-01-14T06:37:44.903Z,0
2017-01-14T06:39:01.142Z,0
2017-01-14T06:40:14.987Z,0
2017-01-14T06:41:29.074Z,0
2017-01-14T06:42:43.216Z,0
2017-01-14T06:43:56.944Z,0
2017-01-14T06:45:10.550Z,0
2017-01-14T06:46:25.339Z,0
2017-01-14T06:47:39.721Z,0
2017-01-14T06:48:53.333Z,0
2017-01-14T06:50:07.033Z,0
2017-01-14T06:51:20.978Z,0
2017-01-14T06:52:34.519Z,0
2017-01-14T06:53:48.480Z,0
2017-01-14T06:55:02.005Z,0
2017-01-14T06:56:15.535Z,0
2017-01-14T06:57:29.070Z,0
2017-01-14T06:58:42.782Z,0
2017-01-14T06:59:56.644Z,0
2017-01-14T07:01:10.144Z,0
2017-01-14T07:02:23.754Z,0
2017-01-14T07:03:37.501Z,0
2017-01-14T07:04:51.458Z,0
2017-01-14T07:06:05.292Z,0
2017-01-14T07:07:18.913Z,0
2017-01-14T07:08:32.428Z,0
2017-01-14T07:09:46.392Z,0
2017-01-14T07:10:59.915Z,0
2017-01-14T07:12:14.278Z,0
2017-01-14T07:13:27.770Z,0
2017-01-14T07:14:41.497Z,0
2017-01-14T07:15:55.049Z,0
2017-01-14T07:17:08.583Z,0
2017-01-14T07:18:22.433Z,0
2017-01-14T07:19:37.303Z,0
2017-01-14T07:20:50.838Z,0
2017-01-14T07:22:04.337Z,0
2017-01-14T07:23:18.335Z,0
2017-01-14T07:24:32.140Z,0
2017-01-14T07:25:47.240Z,0
2017-01-14T07:27:00.813Z,0
2017-01-14T07:28:14.285Z,0
2017-01-14T07:29:27.989Z,0
2017-01-14T07:30:41.928Z,0
2017-01-14T07:31:55.585Z,0
2017-01-14T07:33:09.128Z,0
2017-01-14T07:34:22.629Z,0
2017-01-14T07:35:36.448Z,0
2017-01-14T07:36:50.387Z,0
2017-01-14T07:38:04.476Z,0
2017-01-14T07:39:18.112Z,0
2017-01-14T07:40:31.709Z,5
2017-01-14T07:41:45.314Z,0
2017-01-14T07:42:59.171Z,5
2017-01-14T07:44:12.762Z,0
2017-01-14T07:45:26.337Z,0
2017-01-14T07:46:40.071Z,5
2017-01-14T07:47:53.810Z,5
2017-01-14T07:49:07.696Z,5
2017-01-14T07:50:22.016Z,5
2017-01-14T07:51:36.118Z,5
2017-01-14T07:52:50.257Z,5
2017-01-14T07:54:03.927Z,5
2017-01-14T07:55:20.054Z,5
2017-01-14T07:56:34.081Z,10
2017-01-14T07:57:47.801Z,10
2017-01-14T07:59:01.308Z,5
2017-01-14T08:00:14.971Z,5
2017-01-14T08:01:29.895Z,10
2017-01-14T08:02:44.155Z,5
2017-01-14T08:03:57.877Z,5
2017-01-14T08:05:12.987Z,5
2017-01-14T08:06:26.689Z,5
2017-01-14T08:07:40.882Z,10
2017-01-14T08:08:54.441Z,15
2017-01-14T08:10:07.915Z,10
2017-01-14T08:11:21.553Z,10
2017-01-14T08:12:35.385Z,5
2017-01-14T08:13:49.412Z,5
2017-01-14T08:15:03.535Z,5
2017-01-14T08:16:17.158Z,5
2017-01-14T08:17:31.428Z,5
2017-01-14T08:18:47.221Z,10
2017-01-14T08:20:01.853Z,10
2017-01-14T08:21:15.541Z,15
2017-01-14T08:22:29.196Z,20
2017-01-14T08:23:43.031Z,20
2017-01-14T08:24:56.653Z,20
2017-01-14T08:26:10.825Z,30
2017-01-14T08:27:24.895Z,25
2017-01-14T08:28:39.668Z,15
2017-01-14T08:29:54.121Z,20
2017-01-14T08:31:07.746Z,20
2017-01-14T08:32:21.703Z,20
2017-01-14T08:33:35.621Z,20
2017-01-14T08:34:49.600Z,20
2017-01-14T08:36:04.237Z,20
2017-01-14T08:37:17.908Z,25
2017-01-14T08:38:32.013Z,30
2017-01-14T08:39:46.920Z,35
2017-01-14T08:41:00.798Z,40
2017-01-14T08:42:14.813Z,50
2017-01-14T08:43:29.408Z,50
2017-01-14T08:44:43.899Z,50
2017-01-14T08:45:57.474Z,50
2017-01-14T08:47:11.007Z,45
2017-01-14T08:48:24.731Z,50
2017-01-14T08:49:38.773Z,55
2017-01-14T08:50:54.305Z,65
2017-01-14T08:52:07.967Z,60
2017-01-14T08:53:22.600Z,45
2017-01-14T08:54:38.920Z,45
2017-01-14T08:55:52.799Z,45
2017-01-14T08:57:06.919Z,50
2017-01-14T08:58:22.799Z,40
2017-01-14T08:59:37.254Z,45
2017-01-14T09:00:51.016Z,40
2017-01-14T09:02:04.656Z,35
2017-01-14T09:03:18.567Z,45
2017-01-14T09:04:32.103Z,45
2017-01-14T09:05:47.392Z,40
2017-01-14T09:07:01.099Z,45
2017-01-14T09:08:14.676Z,45
2017-01-14T09:09:29.041Z,60
2017-01-14T09:10:52.638Z,65
2017-01-14T09:12:08.651Z,70
2017-01-14T09:13:23.189Z,70
2017-01-14T09:14:37.579Z,70
2017-01-14T09:16:01.377Z,65
2017-01-14T09:17:16.132Z,60
2017-01-14T09:18:29.746Z,65
2017-01-14T09:19:43.373Z,60
2017-01-14T09:20:57.250Z,55
2017-01-14T09:22:10.988Z,45
2017-01-14T09:23:26.349Z,55
2017-01-14T09:24:41.817Z,55
2017-01-14T09:25:57.218Z,65
2017-01-14T09:27:14.458Z,60
2017-01-14T09:28:28.229Z,55
2017-01-14T09:29:41.765Z,65
2017-01-14T09:30:55.273Z,65
2017-01-14T09:32:19.588Z,75
2017-01-14T09:33:34.170Z,60
2017-01-14T09:34:48.188Z,70
2017-01-14T09:36:01.783Z,75
2017-01-14T09:37:18.666Z,65
2017-01-14T09:38:32.678Z,55
2017-01-14T09:39:46.673Z,45
2017-01-14T09:41:01.221Z,45
2017-01-14T09:42:14.961Z,55
2017-01-14T09:43:29.357Z,50
2017-01-14T09:44:42.888Z,40
2017-01-14T09:45:57.594Z,50
2017-01-14T09:47:11.616Z,60
2017-01-14T09:48:36.137Z,75
2017-01-14T09:49:51.626Z,65
2017-01-14T09:51:05.488Z,65
2017-01-14T09:52:20.870Z,60
2017-01-14T09:53:55.511Z,60
2017-01-14T09:55:09.470Z,65
2017-01-14T09:56:23.306Z,70
2017-01-14T09:57:37.006Z,85
2017-01-14T09:58:50.757Z,100
2017-01-14T10:00:04.527Z,100
2017-01-14T10:01:17.999Z,95
2017-01-14T10:02:31.656Z,100
2017-01-14T10:03:46.843Z,95
2017-01-14T10:05:03.598Z,90
2017-01-14T10:06:17.155Z,95
2017-01-14T10:07:30.981Z,105
2017-01-14T10:08:44.551Z,115
2017-01-14T10:09:58.578Z,125
2017-01-14T10:11:13.255Z,120
2017-01-14T10:12:26.847Z,115
2017-01-14T10:13:40.465Z,110
2017-01-14T10:14:54.534Z,105
2017-01-14T10:16:09.575Z,100
2017-01-14T10:17:24.336Z,100
2017-01-14T10:18:37.919Z,95
2017-01-14T10:19:51.479Z,85
2017-01-14T10:21:14.980Z,75
2017-01-14T10:22:29.266Z,70
2017-01-14T10:23:42.857Z,65
2017-01-14T10:24:56.548Z,70
2017-01-14T10:26:10.281Z,75
2017-01-14T10:27:23.804Z,85
2017-01-14T10:28:38.069Z,85
2017-01-14T10:29:54.432Z,95
2017-01-14T10:31:08.227Z,100
2017-01-14T10:32:21.782Z,100
2017-01-14T10:34:12.895Z,105
2017-01-14T10:35:26.480Z,105
2017-01-14T10:36:40.238Z,105
2017-01-14T10:37:54.232Z,110
2017-01-14T10:39:07.986Z,105
2017-01-14T10:40:21.942Z,110
2017-01-14T10:41:46.050Z,110
2017-01-14T10:42:59.615Z,110
2017-01-14T10:44:13.669Z,110
2017-01-14T10:45:27.141Z,110
2017-01-14T10:46:41.120Z,110
2017-01-14T10:47:54.874Z,105
2017-01-14T10:49:08.453Z,105
2017-01-14T10:50:22.051Z,110
2017-01-14T10:51:39.052Z,110
2017-01-14T10:53:03.945Z,110
2017-01-14T10:54:18.137Z,105
2017-01-14T10:55:36.319Z,100
2017-01-14T10:56:55.336Z,105
2017-01-14T10:58:13.593Z,110
2017-01-14T10:59:32.306Z,115
2017-01-14T11:00:52.784Z,115
2017-01-14T11:02:13.205Z,115
2017-01-14T11:03:40.557Z,115
2017-01-14T11:04:58.351Z,115
2017-01-14T11:06:17.165Z,105
2017-01-14T11:07:36.280Z,100
2017-01-14T11:08:53.860Z,90
2017-01-14T11:10:14.978Z,90
2017-01-14T11:11:30.435Z,85
2017-01-14T11:12:44.108Z,85
2017-01-14T11:13:58.279Z,60
2017-01-14T11:15:11.761Z,60
2017-01-14T11:16:25.594Z,75
2017-01-14T11:17:39.040Z,70
2017-01-14T11:18:52.675Z,85
2017-01-14T11:20:06.160Z,95
2017-01-14T11:21:19.606Z,90
2017-01-14T11:22:33.957Z,90
2017-01-14T11:23:47.599Z,90
2017-01-14T11:25:01.622Z,95
2017-01-14T11:26:15.503Z,100
2017-01-14T11:27:28.920Z,95
2017-01-14T11:28:42.859Z,100
2017-01-14T11:29:56.431Z,100
2017-01-14T11:31:10.055Z,95
2017-01-14T11:32:23.664Z,80
2017-01-14T11:33:37.148Z,70
2017-01-14T11:34:51.094Z,70
2017-01-14T11:36:04.624Z,75
2017-01-14T11:37:18.143Z,80
2017-01-14T11:38:31.622Z,80
2017-01-14T11:39:45.042Z,85
2017-01-14T11:41:00.091Z,85
2017-01-14T11:42:13.657Z,95
2017-01-14T11:43:33.426Z,90
2017-01-14T11:44:46.938Z,90
2017-01-14T11:46:00.550Z,85
2017-01-14T11:47:14.368Z,100
2017-01-14T11:48:30.066Z,105
2017-01-14T11:49:43.647Z,120
2017-01-14T11:50:57.270Z,115
2017-01-14T11:52:10.871Z,120
2017-01-14T11:53:24.670Z,120
2017-01-14T11:54:38.368Z,115
2017-01-14T11:55:52.099Z,110
2017-01-14T11:57:05.574Z,110
2017-01-14T11:58:19.033Z,105
2017-01-14T11:59:32.888Z,100
2017-01-14T12:00:46.564Z,100
2017-01-14T12:02:00.222Z,105
2017-01-14T12:03:13.676Z,105
2017-01-14T12:04:27.125Z,125
2017-01-14T12:05:40.893Z,125
2017-01-14T12:06:55.762Z,125
2017-01-14T12:08:09.369Z,120
2017-01-14T12:09:22.853Z,115
2017-01-14T12:10:36.372Z,120
2017-01-14T12:11:50.244Z,120
2017-01-14T12:13:03.757Z,115
2017-01-14T12:14:17.268Z,115
2017-01-14T12:15:31.004Z,115
2017-01-14T12:16:52.860Z,115
2017-01-14T12:18:06.708Z,115
2017-01-14T12:19:20.212Z,115
2017-01-14T12:20:33.684Z,110
2017-01-14T12:21:47.333Z,105
2017-01-14T12:23:20.989Z,105
2017-01-14T12:24:34.511Z,110
2017-01-14T12:25:48.390Z,110
2017-01-14T12:27:01.917Z,105
2017-01-14T12:28:15.437Z,105
2017-01-14T12:29:29.600Z,100
2017-01-14T12:30:43.225Z,95
2017-01-14T12:31:56.777Z,100
2017-01-14T12:33:10.310Z,95
2017-01-14T12:34:24.332Z,95
2017-01-14T12:35:38.152Z,110
2017-01-14T12:36:51.738Z,115
2017-01-14T12:38:05.297Z,115
2017-01-14T12:39:19.164Z,110
2017-01-14T12:40:32.816Z,110
2017-01-14T12:41:46.598Z,110
2017-01-14T12:43:00.103Z,100
2017-01-14T12:44:14.086Z,90
2017-01-14T12:45:27.706Z,95
2017-01-14T12:46:41.222Z,100
2017-01-14T12:47:54.964Z,105
2017-01-14T12:49:08.566Z,100
2017-01-14T12:50:22.684Z,105
2017-01-14T12:51:36.685Z,110
2017-01-14T12:52:50.496Z,110
2017-01-14T12:54:04.338Z,110
2017-01-14T12:55:19.089Z,110
2017-01-14T12:56:32.623Z,105
2017-01-14T12:57:46.184Z,110
2017-01-14T12:58:59.683Z,110
2017-01-14T13:01:37.851Z,115
2017-01-14T13:02:51.434Z,110
2017-01-14T13:04:05.056Z,110
2017-01-14T13:05:21.298Z,110
2017-01-14T13:06:35.923Z,110
2017-01-14T13:07:49.497Z,110
2017-01-14T13:09:03.034Z,110
2017-01-14T13:10:16.669Z,110
2017-01-14T13:11:32.320Z,105
2017-01-14T13:12:46.473Z,100
2017-01-14T13:14:00.497Z,95
2017-01-14T13:15:14.055Z,95
2017-01-14T13:16:27.719Z,95
2017-01-14T13:17:43.101Z,90
2017-01-14T13:18:59.318Z,85
2017-01-14T13:20:13.260Z,85
2017-01-14T13:21:43.840Z,75
2017-01-14T13:22:57.555Z,55
2017-01-14T13:24:11.452Z,50
2017-01-14T13:25:25.417Z,40
2017-01-14T13:26:39.175Z,35
2017-01-14T13:28:02.819Z,30
2017-01-14T13:29:16.456Z,25
2017-01-14T13:30:30.669Z,20
2017-01-14T13:31:45.133Z,15
2017-01-14T13:32:59.321Z,15
2017-01-14T13:34:15.915Z,20
2017-01-14T13:35:29.872Z,20
2017-01-14T13:36:43.681Z,15
2017-01-14T13:37:57.683Z,15
2017-01-14T13:39:13.681Z,15
2017-01-14T13:40:28.517Z,15
2017-01-14T13:41:42.710Z,15
2017-01-14T13:42:56.510Z,20
2017-01-14T13:44:10.544Z,30
2017-01-14T13:45:24.419Z,45
2017-01-14T13:46:37.927Z,50
2017-01-14T13:47:51.598Z,50
2017-01-14T13:49:06.020Z,50
2017-01-14T13:50:19.646Z,50
2017-01-14T13:51:35.955Z,50
2017-01-14T13:52:49.932Z,45
2017-01-14T13:54:03.707Z,35
2017-01-14T13:55:19.116Z,30
2017-01-14T13:56:32.860Z,30
2017-01-14T13:57:47.548Z,20
2017-01-14T13:59:01.719Z,15
2017-01-14T14:00:15.664Z,20
2017-01-14T14:01:29.725Z,20
2017-01-14T14:02:45.999Z,30
2017-01-14T14:04:01.001Z,35
2017-01-14T14:05:14.537Z,30
2017-01-14T14:06:28.048Z,30
2017-01-14T14:07:42.062Z,35
2017-01-14T14:08:55.704Z,35
2017-01-14T14:10:09.216Z,45
2017-01-14T14:11:22.737Z,45
2017-01-14T14:12:36.584Z,50
2017-01-14T14:13:50.504Z,55
2017-01-14T14:15:04.501Z,50
2017-01-14T14:16:18.122Z,35
2017-01-14T14:17:31.561Z,25
2017-01-14T14:18:58.002Z,20
2017-01-14T14:20:12.785Z,20
2017-01-14T14:21:26.227Z,25
2017-01-14T14:22:41.972Z,25
2017-01-14T14:23:55.459Z,25
2017-01-14T14:25:09.681Z,20
2017-01-14T14:26:23.137Z,20
2017-01-14T14:27:36.609Z,25
2017-01-14T14:28:50.044Z,25
2017-01-14T14:30:03.621Z,30
2017-01-14T14:31:17.802Z,30
2017-01-14T14:32:32.087Z,30
2017-01-14T14:34:17.590Z,20
2017-01-14T14:35:31.161Z,15
2017-01-14T14:36:44.938Z,20
2017-01-14T14:37:58.413Z,20
2017-01-14T14:39:12.047Z,15
2017-01-14T14:40:26.037Z,10
2017-01-14T14:41:39.462Z,15
2017-01-14T14:42:53.239Z,20
2017-01-14T14:44:06.740Z,20
2017-01-14T14:45:20.779Z,10
2017-01-14T14:46:34.295Z,10
2017-01-14T14:47:47.791Z,10
2017-01-14T14:49:01.539Z,10
2017-01-14T14:50:15.007Z,10
2017-01-14T14:51:28.550Z,10
2017-01-14T14:52:42.144Z,5
2017-01-14T14:53:55.651Z,5
2017-01-14T14:55:09.421Z,5
2017-01-14T14:56:24.226Z,10
2017-01-14T14:57:37.745Z,5
2017-01-14T14:58:51.224Z,5
2017-01-14T15:00:17.394Z,5
2017-01-14T15:01:31.964Z,5
2017-01-14T15:02:45.571Z,5
2017-01-14T15:04:00.503Z,5
2017-01-14T15:05:14.140Z,5
2017-01-14T15:06:53.608Z,5
2017-01-14T15:08:07.133Z,5
2017-01-14T15:09:20.593Z,5
2017-01-14T15:10:34.188Z,5
2017-01-14T15:11:49.664Z,5
2017-01-14T15:13:03.838Z,5
2017-01-14T15:14:17.275Z,5
2017-01-14T15:15:30.756Z,5
2017-01-14T15:16:44.325Z,5
2017-01-14T15:17:57.887Z,5
2017-01-14T15:19:11.627Z,5
2017-01-14T15:20:25.119Z,5
2017-01-14T15:21:38.856Z,5
2017-01-14T15:22:53.730Z,10
2017-01-14T15:24:09.732Z,10
2017-01-14T15:25:29.701Z,10
2017-01-14T15:26:46.523Z,10
2017-01-14T15:28:02.038Z,5
2017-01-14T15:29:16.810Z,10
2017-01-14T15:30:31.638Z,10
2017-01-14T15:31:47.420Z,5
2017-01-14T15:33:02.211Z,5
2017-01-14T15:34:16.949Z,5
2017-01-14T15:35:30.734Z,5
2017-01-14T15:36:44.977Z,5
2017-01-14T15:38:02.178Z,5
2017-01-14T15:39:16.853Z,5
2017-01-14T15:40:33.652Z,5
2017-01-14T15:41:48.920Z,0
2017-01-14T15:43:03.744Z,0
2017-01-14T15:44:19.019Z,0
2017-01-14T15:45:33.984Z,0
2017-01-14T15:46:48.240Z,0
2017-01-14T15:48:01.781Z,0
2017-01-14T15:49:15.259Z,0
2017-01-14T15:50:29.009Z,0
2017-01-14T15:51:42.537Z,0
2017-01-14T15:54:19.457Z,0
2017-01-14T15:55:32.887Z,0
2017-01-14T15:56:46.655Z,0
2017-01-14T15:58:00.071Z,0
2017-01-14T15:59:13.586Z,0
2017-01-14T16:00:27.013Z,0
2017-01-14T16:01:40.451Z,0
2017-01-14T16:02:54.669Z,0
2017-01-14T16:04:11.921Z,0
2017-01-14T16:05:27.501Z,0
2017-01-14T16:06:41.690Z,0
2017-01-14T16:07:58.700Z,0
2017-01-14T16:09:14.006Z,0
2017-01-14T16:10:30.038Z,0
2017-01-14T16:11:45.984Z,0
2017-01-14T16:13:00.756Z,0
2017-01-14T16:14:18.768Z,0
2017-01-14T16:15:35.380Z,0
2017-01-14T16:16:50.743Z,0
2017-01-14T16:18:06.061Z,0
2017-01-14T16:19:23.670Z,0
2017-01-14T16:20:39.207Z,0
2017-01-14T16:21:54.269Z,0
2017-01-14T16:23:08.979Z,0
2017-01-14T16:24:24.971Z,0
2017-01-14T16:25:41.177Z,0
2017-01-14T16:26:56.435Z,0
2017-01-14T16:28:11.464Z,0
2017-01-14T16:29:36.451Z,0
2017-01-14T16:30:51.930Z,0
2017-01-14T16:32:08.247Z,0
2017-01-14T16:33:23.591Z,0
2017-01-14T16:34:42.115Z,0
2017-01-14T16:35:57.696Z,0
2017-01-14T16:37:11.779Z,0
2017-01-14T16:38:27.488Z,0
2017-01-14T16:39:43.226Z,0
2017-01-14T16:40:59.623Z,0
2017-01-14T16:42:16.016Z,0
2017-01-14T16:43:33.658Z,0
2017-01-14T16:44:51.340Z,0
2017-01-14T16:46:27.149Z,0
2017-01-14T16:47:43.258Z,0
2017-01-14T16:48:57.137Z,0
2017-01-14T16:50:12.328Z,0
2017-01-14T16:51:29.613Z,0
2017-01-14T16:52:47.359Z,0
2017-01-14T16:54:05.210Z,0
2017-01-14T16:55:21.418Z,0
2017-01-14T16:56:39.914Z,0
2017-01-14T16:57:54.921Z,0
2017-01-14T16:59:14.385Z,0
2017-01-14T17:00:31.816Z,0
2017-01-14T17:01:48.113Z,0
2017-01-14T17:03:05.446Z,0
2017-01-14T17:04:22.355Z,0
2017-01-14T17:05:38.977Z,0
2017-01-14T17:06:56.246Z,0
2017-01-14T17:08:15.039Z,0
2017-01-14T17:09:32.419Z,0
2017-01-14T17:10:48.338Z,0
2017-01-14T17:12:04.200Z,0
2017-01-14T17:13:22.388Z,0
2017-01-14T17:14:39.001Z,0
2017-01-14T17:15:57.464Z,0
2017-01-14T17:17:15.333Z,0
2017-01-14T17:18:32.333Z,0
2017-01-14T17:19:48.507Z,0
2017-01-14T17:21:04.149Z,0
2017-01-14T17:22:20.183Z,0
2017-01-14T17:23:37.449Z,0
2017-01-14T17:24:55.605Z,0
2017-01-14T17:26:12.068Z,0
2017-01-14T17:27:30.084Z,0
2017-01-14T17:28:46.072Z,0
2017-01-14T17:30:02.284Z,0
2017-01-14T17:31:17.499Z,0
2017-01-14T17:32:33.567Z,0
2017-01-14T17:33:52.575Z,0
2017-01-14T17:35:10.389Z,0
2017-01-14T17:36:25.250Z,0
2017-01-14T17:37:40.209Z,0
2017-01-14T17:38:58.130Z,0
2017-01-14T17:40:16.018Z,0
2017-01-14T17:41:31.937Z,0
2017-01-14T17:42:48.034Z,0
2017-01-14T17:44:06.382Z,0
2017-01-14T17:45:24.562Z,0
2017-01-14T17:46:39.874Z,0
2017-01-14T17:47:55.399Z,0
2017-01-14T17:49:11.548Z,0
2017-01-14T17:50:25.206Z,0
2017-01-14T17:51:39.126Z,0
2017-01-14T17:52:52.680Z,0
2017-01-14T17:54:07.147Z,0
2017-01-14T17:55:20.741Z,0
2017-01-14T17:56:34.445Z,0
2017-01-14T17:57:48.704Z,0
2017-01-14T17:59:02.445Z,0
2017-01-14T18:00:15.964Z,0
2017-01-14T18:01:30.168Z,0
2017-01-14T18:02:43.742Z,0
2017-01-14T18:03:57.748Z,0
2017-01-14T18:05:11.182Z,0
2017-01-14T18:06:24.598Z,0
2017-01-14T18:07:39.297Z,0